Bem-vindo à BOL. O nosso site usa cookies e outras tecnologias para personalizar a sua experiência e compreender como você e os outros visitantes usam o nosso site.
Para ver uma lista completa das empresas que usam estes cookies e outras tecnologias e nos informar se podem ou não ser utilizadas no seu dispositivo, aceda à nossa página de política de cookies.

Concordo
Distrito Sala
Classificações
BLUE RUN 2.0

BLUE RUN 2.0

Desporto & Aventura | Atletismo

03 mai 2015 10:00 | Quinta do Lago

LugarDorsalNomeEscalãoTempo ChipTempo OficialEquipaDiploma
2Jorge Varela1º -Senior Masculino 00:32:1600:32:16
328Manuel Ferraz2º -Senior Masculino 00:32:2400:32:24
435paulo soares3º -Senior Masculino 00:32:3400:32:34
295Leonardo Augusto Vieira Lopes4º -Senior Masculino 00:35:5600:35:56
626Piotr Patrik Cypryanski5º -Senior Masculino 00:36:1000:36:10
509SERGIO6º -Senior Masculino 00:36:2700:36:27
3Álvaro Rodrigues7º -Senior Masculino 00:36:5000:36:50
618David Silva8º -Senior Masculino 00:37:1100:37:11
1Ana Dias1º -Senior Feminino 00:37:1500:37:15
10º 119Cláudio Florêncio Nascimento Mocho9º -Senior Masculino 00:37:2100:37:21
11º 35André Arvela10º -Senior Masculino 00:38:0000:38:00
12º 62062011º -Senior Masculino 00:38:1500:38:15
13º 281José Carlos Baptista12º -Senior Masculino 00:38:4300:38:43
14º 277Jorge Miguel Fernandes Fortunato13º -Senior Masculino 00:38:5500:38:55
15º 613Les Cairney14º -Senior Masculino 00:38:5500:38:55
16º 207Frederic Ferraz15º -Senior Masculino 00:39:3100:39:31
17º 209Gabriel José Ruivo Marriço16º -Senior Masculino 00:39:3100:39:31
18º 244João Alexandre17º -Senior Masculino 00:39:4600:39:46
19º 404Nuno Lopes18º -Senior Masculino 00:39:5600:39:56
20º 559Ulisses José Rodrigues Quintino Camões19º -Senior Masculino 00:40:1200:40:12
21º 233Isac José Lage Vilhena20º -Senior Masculino 00:40:1500:40:15
22º 303Lorenzo Abreu21º -Senior Masculino 00:40:2500:40:25
23º 289José Pina22º -Senior Masculino 00:40:3700:40:37
24º 261João Paulo Martins23º -Senior Masculino 00:40:4000:40:40
25º 140Davide Santos24º -Senior Masculino 00:41:2900:41:29
26º 247João Carvalho25º -Senior Masculino 00:41:4500:41:45
27º 412Pascal Rodrigues26º -Senior Masculino 00:41:4600:41:46
28º 178fabio cotovio27º -Senior Masculino 00:41:5500:41:55
29º 5Alexander Kenney28º -Senior Masculino 00:42:0200:42:02
30º 562Valdemar Cardoso29º -Senior Masculino 00:42:0300:42:03
31º 98Catarina Costa2º -Senior Feminino 00:42:0800:42:08
32º 128Daniel Graça30º -Senior Masculino 00:42:1000:42:10
33º 49António José Martins31º -Senior Masculino 00:42:1100:42:11
34º 280José Alexandre de Oliveira32º -Senior Masculino 00:42:1200:42:12
35º 223Ilídio Valerio33º -Senior Masculino 00:42:1700:42:17
36º 478RUI JORGE FIGUEIRA TEIXEIRA34º -Senior Masculino 00:42:1900:42:19
37º 120Cláudio Galego35º -Senior Masculino 00:42:2500:42:25
38º 540Tânia Filipa Cabrita xavier3º -Senior Feminino 00:42:2500:42:25
39º 40ANDRE PIRES36º -Senior Masculino 00:42:4300:42:43
40º 407Nuno Rosalino Pires37º -Senior Masculino 00:42:4600:42:46
41º 55António Manuel Fraga Miranda38º -Senior Masculino 00:42:5400:42:54
42º 265João Teixeira39º -Senior Masculino 00:42:5800:42:58
43º 266João Valério40º -Senior Masculino 00:42:5900:42:59
44º 433Paulo Melo41º -Senior Masculino 00:43:0000:43:00
45º 180Fabio Pereira42º -Senior Masculino 00:43:0500:43:05
46º 449Peter Mario Ashdown43º -Senior Masculino 00:43:1100:43:11
47º 475Rui Domingos44º -Senior Masculino 00:43:3000:43:30
48º 258João Neto45º -Senior Masculino 00:43:3400:43:34
49º 196Filipe Coelho46º -Senior Masculino 00:43:4100:43:41
50º 309LUIS BRITO47º -Senior Masculino 00:43:4900:43:49
1 2 3 4 5 6 7 ... 11